Barnet — 3FBQ2 — position and weather

sailwx.info

Track history (hours):
 
Tides and Currents Weather Stations Pressure Air Temp Water Temp Dewpoint Dewpoint Depression Visibility Wind Speed Wind Dir Waves Ship Positions

Barnet

Last reported at 2018-Apr-17 03:04 UTC. Time now 2018-Apr-21 00:18 UTC.
Position N 45°07' E 036°29'.

Length 140 m; draft 4.1 m.

Type: Ship (hazmat cat A). MMSI: 355691000.

Date/timePositionNaut miles runAvg speedWind from/ knotsBaromVisibWave heightAir tempDewpointWater temp
2018-Apr-17 03:04N 45°07' E 036°29'1 7.6
2018-Apr-17 02:52N 45°08' E 036°29'4 7.3
2018-Apr-17 02:16N 45°12' E 036°28'2 7.4
2018-Apr-17 01:57N 45°15' E 036°28'3 6.4
2018-Apr-17 01:24N 45°18' E 036°29'3 7.6
2018-Apr-17 01:01N 45°19' E 036°33'4 7.5
2018-Apr-17 00:30N 45°21' E 036°38'3 6.3
2018-Apr-17 00:00N 45°24' E 036°40'3 5.6
2018-Apr-16 23:27N 45°27' E 036°41'2 5.2
2018-Apr-16 23:00N 45°29' E 036°43'  
2018-Apr-12 16:04N 45°29' E 036°47'0 7.8
2018-Apr-12 16:01N 45°29' E 036°46'4 7.9
2018-Apr-12 15:30N 45°25' E 036°43'4 7.4
2018-Apr-12 15:00N 45°22' E 036°40'3 6.2
2018-Apr-12 14:31N 45°20' E 036°37'4 7.5
2018-Apr-12 14:00N 45°19' E 036°32'3 6.2
2018-Apr-12 13:31N 45°17' E 036°29'3 5.4
2018-Apr-12 13:00N 45°14' E 036°30'0 0.1
2018-Apr-12 11:36N 45°14' E 036°30'0 0.1
2018-Apr-12 11:31N 45°14' E 036°30'0 0.0
2018-Apr-12 10:56N 45°14' E 036°30'0 0.0
2018-Apr-12 10:14N 45°14' E 036°30'0 0.2
2018-Apr-12 10:01N 45°14' E 036°30'0 0.0
2018-Apr-12 09:30N 45°14' E 036°30'0 0.1
2018-Apr-12 09:01N 45°14' E 036°30'0 0.0
2018-Apr-12 08:31N 45°14' E 036°30'0 0.0
2018-Apr-12 07:56N 45°14' E 036°30'0 0.1
2018-Apr-12 07:30N 45°14' E 036°30'1 2.5
2018-Apr-12 07:01N 45°13' E 036°30'7 8.2
2018-Apr-12 06:13N 45°06' E 036°30'  
2018-Apr-09 21:21N 40°59' E 028°60'  
Track history (hours):
 
Tides and Currents Weather Stations Pressure Air Temp Water Temp Dewpoint Dewpoint Depression Visibility Wind Speed Wind Dir Waves Ship Positions

Barnet

Last reported at 2018-Apr-17 03:04 UTC. Time now 2018-Apr-21 00:18 UTC.
Position N 45°07' E 036°29'.

Length 140 m; draft 4.1 m.

Type: Ship (hazmat cat A). MMSI: 355691000.

Date/timePositionNaut miles runAvg speedWind from/ knotsBaromVisibWave heightAir tempDewpointWater temp
2018-Apr-17 03:04N 45°07' E 036°29'1 7.6
2018-Apr-17 02:52N 45°08' E 036°29'4 7.3
2018-Apr-17 02:16N 45°12' E 036°28'2 7.4
2018-Apr-17 01:57N 45°15' E 036°28'3 6.4
2018-Apr-17 01:24N 45°18' E 036°29'3 7.6
2018-Apr-17 01:01N 45°19' E 036°33'4 7.5
2018-Apr-17 00:30N 45°21' E 036°38'3 6.3
2018-Apr-17 00:00N 45°24' E 036°40'3 5.6
2018-Apr-16 23:27N 45°27' E 036°41'2 5.2
2018-Apr-16 23:00N 45°29' E 036°43'  
2018-Apr-12 16:04N 45°29' E 036°47'0 7.8
2018-Apr-12 16:01N 45°29' E 036°46'4 7.9
2018-Apr-12 15:30N 45°25' E 036°43'4 7.4
2018-Apr-12 15:00N 45°22' E 036°40'3 6.2
2018-Apr-12 14:31N 45°20' E 036°37'4 7.5
2018-Apr-12 14:00N 45°19' E 036°32'3 6.2
2018-Apr-12 13:31N 45°17' E 036°29'3 5.4
2018-Apr-12 13:00N 45°14' E 036°30'0 0.1
2018-Apr-12 11:36N 45°14' E 036°30'0 0.1
2018-Apr-12 11:31N 45°14' E 036°30'0 0.0
2018-Apr-12 10:56N 45°14' E 036°30'0 0.0
2018-Apr-12 10:14N 45°14' E 036°30'0 0.2
2018-Apr-12 10:01N 45°14' E 036°30'0 0.0
2018-Apr-12 09:30N 45°14' E 036°30'0 0.1
2018-Apr-12 09:01N 45°14' E 036°30'0 0.0
2018-Apr-12 08:31N 45°14' E 036°30'0 0.0
2018-Apr-12 07:56N 45°14' E 036°30'0 0.1
2018-Apr-12 07:30N 45°14' E 036°30'1 2.5
2018-Apr-12 07:01N 45°13' E 036°30'7 8.2
2018-Apr-12 06:13N 45°06' E 036°30'  
2018-Apr-09 21:21N 40°59' E 028°60'  

Dump ship's entire track history